sensor_id;sensor_type;location;lat;lon;timestamp;P1;durP1;ratioP1;P2;durP2;ratioP2
46875;SDS011;32866;50.160;14.768;2022-12-10T00:00:12;56.10;;;27.05;;
46875;SDS011;32866;50.160;14.768;2022-12-10T00:02:39;47.63;;;25.33;;
46875;SDS011;32866;50.160;14.768;2022-12-10T00:05:04;47.42;;;25.85;;
46875;SDS011;32866;50.160;14.768;2022-12-10T00:07:30;51.35;;;25.95;;
46875;SDS011;32866;50.160;14.768;2022-12-10T00:09:55;44.63;;;24.73;;
46875;SDS011;32866;50.160;14.768;2022-12-10T00:12:20;44.30;;;25.60;;
46875;SDS011;32866;50.160;14.768;2022-12-10T00:14:46;61.92;;;31.10;;
46875;SDS011;32866;50.160;14.768;2022-12-10T00:17:11;55.95;;;29.42;;
46875;SDS011;32866;50.160;14.768;2022-12-10T00:19:36;53.50;;;26.50;;
46875;SDS011;32866;50.160;14.768;2022-12-10T00:22:02;55.45;;;28.50;;
46875;SDS011;32866;50.160;14.768;2022-12-10T00:24:27;54.25;;;28.30;;
46875;SDS011;32866;50.160;14.768;2022-12-10T00:26:52;59.78;;;33.22;;
46875;SDS011;32866;50.160;14.768;2022-12-10T00:29:18;58.25;;;29.08;;
46875;SDS011;32866;50.160;14.768;2022-12-10T00:31:43;57.63;;;29.20;;
46875;SDS011;32866;50.160;14.768;2022-12-10T00:34:09;53.15;;;26.13;;
46875;SDS011;32866;50.160;14.768;2022-12-10T00:36:38;48.60;;;27.00;;
46875;SDS011;32866;50.160;14.768;2022-12-10T00:39:15;52.10;;;29.20;;
46875;SDS011;32866;50.160;14.768;2022-12-10T00:41:42;48.33;;;27.10;;
46875;SDS011;32866;50.160;14.768;2022-12-10T00:44:08;50.75;;;28.77;;
46875;SDS011;32866;50.160;14.768;2022-12-10T00:46:33;49.65;;;27.00;;
46875;SDS011;32866;50.160;14.768;2022-12-10T00:48:59;46.67;;;25.45;;
46875;SDS011;32866;50.160;14.768;2022-12-10T00:51:25;51.20;;;26.55;;
46875;SDS011;32866;50.160;14.768;2022-12-10T00:53:52;55.90;;;29.30;;
46875;SDS011;32866;50.160;14.768;2022-12-10T00:56:20;55.83;;;27.37;;
46875;SDS011;32866;50.160;14.768;2022-12-10T00:58:47;50.23;;;27.67;;
46875;SDS011;32866;50.160;14.768;2022-12-10T01:03:48;42.07;;;23.03;;
46875;SDS011;32866;50.160;14.768;2022-12-10T01:06:19;41.93;;;25.00;;
46875;SDS011;32866;50.160;14.768;2022-12-10T01:09:06;45.57;;;24.47;;
46875;SDS011;32866;50.160;14.768;2022-12-10T01:11:35;44.83;;;25.93;;
46875;SDS011;32866;50.160;14.768;2022-12-10T01:14:02;45.67;;;26.57;;
46875;SDS011;32866;50.160;14.768;2022-12-10T01:16:28;42.90;;;23.75;;
46875;SDS011;32866;50.160;14.768;2022-12-10T01:18:57;39.60;;;22.30;;
46875;SDS011;32866;50.160;14.768;2022-12-10T01:21:24;45.13;;;23.60;;
46875;SDS011;32866;50.160;14.768;2022-12-10T01:23:51;44.80;;;24.97;;
46875;SDS011;32866;50.160;14.768;2022-12-10T01:26:18;46.33;;;23.03;;
46875;SDS011;32866;50.160;14.768;2022-12-10T01:28:51;42.10;;;24.93;;
46875;SDS011;32866;50.160;14.768;2022-12-10T01:31:25;48.77;;;24.87;;
46875;SDS011;32866;50.160;14.768;2022-12-10T01:33:52;44.70;;;26.17;;
46875;SDS011;32866;50.160;14.768;2022-12-10T01:36:19;43.65;;;23.05;;
46875;SDS011;32866;50.160;14.768;2022-12-10T01:38:47;50.53;;;25.50;;
46875;SDS011;32866;50.160;14.768;2022-12-10T01:41:15;43.53;;;22.90;;
46875;SDS011;32866;50.160;14.768;2022-12-10T01:44:03;46.60;;;23.83;;
46875;SDS011;32866;50.160;14.768;2022-12-10T01:46:49;52.57;;;24.83;;
46875;SDS011;32866;50.160;14.768;2022-12-10T01:49:23;44.10;;;25.80;;
46875;SDS011;32866;50.160;14.768;2022-12-10T01:51:51;39.77;;;22.70;;
46875;SDS011;32866;50.160;14.768;2022-12-10T01:54:20;44.30;;;24.57;;
46875;SDS011;32866;50.160;14.768;2022-12-10T01:57:00;43.10;;;23.77;;
46875;SDS011;32866;50.160;14.768;2022-12-10T01:59:29;44.88;;;26.05;;
46875;SDS011;32866;50.160;14.768;2022-12-10T02:07:28;47.07;;;23.87;;
46875;SDS011;32866;50.160;14.768;2022-12-10T02:12:51;43.73;;;25.30;;
46875;SDS011;32866;50.160;14.768;2022-12-10T02:15:47;42.03;;;23.03;;
46875;SDS011;32866;50.160;14.768;2022-12-10T02:18:28;48.13;;;24.47;;
46875;SDS011;32866;50.160;14.768;2022-12-10T02:21:03;46.00;;;24.57;;
46875;SDS011;32866;50.160;14.768;2022-12-10T02:23:43;43.83;;;24.23;;
46875;SDS011;32866;50.160;14.768;2022-12-10T02:28:51;48.90;;;24.60;;
46875;SDS011;32866;50.160;14.768;2022-12-10T02:31:31;43.88;;;24.92;;
46875;SDS011;32866;50.160;14.768;2022-12-10T02:33:59;38.10;;;21.80;;
46875;SDS011;32866;50.160;14.768;2022-12-10T02:36:28;36.50;;;22.17;;
46875;SDS011;32866;50.160;14.768;2022-12-10T02:38:57;42.37;;;24.20;;
46875;SDS011;32866;50.160;14.768;2022-12-10T02:41:28;39.23;;;23.03;;
46875;SDS011;32866;50.160;14.768;2022-12-10T02:43:59;41.33;;;23.83;;
46875;SDS011;32866;50.160;14.768;2022-12-10T02:46:28;44.33;;;23.83;;
46875;SDS011;32866;50.160;14.768;2022-12-10T02:48:56;37.97;;;22.37;;
46875;SDS011;32866;50.160;14.768;2022-12-10T02:51:23;42.07;;;21.93;;
46875;SDS011;32866;50.160;14.768;2022-12-10T02:53:58;42.75;;;24.88;;
46875;SDS011;32866;50.160;14.768;2022-12-10T02:56:40;47.30;;;24.77;;
46875;SDS011;32866;50.160;14.768;2022-12-10T02:59:18;45.63;;;24.70;;
46875;SDS011;32866;50.160;14.768;2022-12-10T03:07:18;36.40;;;22.90;;
46875;SDS011;32866;50.160;14.768;2022-12-10T03:09:53;41.10;;;23.40;;
46875;SDS011;32866;50.160;14.768;2022-12-10T03:12:41;42.47;;;24.13;;
46875;SDS011;32866;50.160;14.768;2022-12-10T03:15:13;45.03;;;22.77;;
46875;SDS011;32866;50.160;14.768;2022-12-10T03:17:40;41.50;;;24.57;;
46875;SDS011;32866;50.160;14.768;2022-12-10T03:20:09;40.97;;;22.00;;
46875;SDS011;32866;50.160;14.768;2022-12-10T03:22:38;45.40;;;25.97;;
46875;SDS011;32866;50.160;14.768;2022-12-10T03:25:08;45.73;;;23.63;;
46875;SDS011;32866;50.160;14.768;2022-12-10T03:27:36;45.87;;;24.87;;
46875;SDS011;32866;50.160;14.768;2022-12-10T03:30:05;43.47;;;23.03;;
46875;SDS011;32866;50.160;14.768;2022-12-10T03:32:31;42.85;;;22.35;;
46875;SDS011;32866;50.160;14.768;2022-12-10T03:34:57;42.55;;;23.63;;
46875;SDS011;32866;50.160;14.768;2022-12-10T03:37:24;42.90;;;22.37;;
46875;SDS011;32866;50.160;14.768;2022-12-10T03:39:51;47.10;;;23.10;;
46875;SDS011;32866;50.160;14.768;2022-12-10T03:42:17;42.47;;;24.45;;
46875;SDS011;32866;50.160;14.768;2022-12-10T03:44:42;36.33;;;20.30;;
46875;SDS011;32866;50.160;14.768;2022-12-10T03:47:09;40.60;;;22.95;;
46875;SDS011;32866;50.160;14.768;2022-12-10T03:49:39;35.00;;;22.53;;
46875;SDS011;32866;50.160;14.768;2022-12-10T03:52:05;41.57;;;22.00;;
46875;SDS011;32866;50.160;14.768;2022-12-10T03:54:31;46.97;;;25.15;;
46875;SDS011;32866;50.160;14.768;2022-12-10T03:56:56;42.40;;;22.17;;
46875;SDS011;32866;50.160;14.768;2022-12-10T03:59:22;42.25;;;22.95;;
46875;SDS011;32866;50.160;14.768;2022-12-10T04:01:47;41.88;;;23.38;;
46875;SDS011;32866;50.160;14.768;2022-12-10T04:04:12;48.75;;;25.13;;
46875;SDS011;32866;50.160;14.768;2022-12-10T04:06:38;44.17;;;26.48;;
46875;SDS011;32866;50.160;14.768;2022-12-10T04:09:05;45.40;;;20.90;;
46875;SDS011;32866;50.160;14.768;2022-12-10T04:11:31;39.88;;;22.65;;
46875;SDS011;32866;50.160;14.768;2022-12-10T04:13:56;46.25;;;23.90;;
46875;SDS011;32866;50.160;14.768;2022-12-10T04:16:40;44.60;;;23.43;;
46875;SDS011;32866;50.160;14.768;2022-12-10T04:19:07;45.53;;;23.60;;
46875;SDS011;32866;50.160;14.768;2022-12-10T04:21:35;44.30;;;24.93;;
46875;SDS011;32866;50.160;14.768;2022-12-10T04:24:25;40.67;;;22.17;;
46875;SDS011;32866;50.160;14.768;2022-12-10T04:27:13;43.63;;;22.30;;
46875;SDS011;32866;50.160;14.768;2022-12-10T04:29:51;45.53;;;23.37;;
46875;SDS011;32866;50.160;14.768;2022-12-10T04:32:17;46.85;;;22.27;;
46875;SDS011;32866;50.160;14.768;2022-12-10T04:34:43;43.30;;;22.42;;
46875;SDS011;32866;50.160;14.768;2022-12-10T04:37:08;42.38;;;21.75;;
46875;SDS011;32866;50.160;14.768;2022-12-10T04:39:36;40.13;;;23.40;;
46875;SDS011;32866;50.160;14.768;2022-12-10T04:42:02;39.47;;;21.55;;
46875;SDS011;32866;50.160;14.768;2022-12-10T04:44:27;47.17;;;24.58;;
46875;SDS011;32866;50.160;14.768;2022-12-10T04:46:52;50.33;;;23.20;;
46875;SDS011;32866;50.160;14.768;2022-12-10T04:49:18;41.05;;;22.85;;
46875;SDS011;32866;50.160;14.768;2022-12-10T04:51:44;41.80;;;23.08;;
46875;SDS011;32866;50.160;14.768;2022-12-10T04:54:09;48.97;;;24.23;;
46875;SDS011;32866;50.160;14.768;2022-12-10T04:56:35;45.00;;;23.23;;
46875;SDS011;32866;50.160;14.768;2022-12-10T04:59:02;42.97;;;25.90;;
46875;SDS011;32866;50.160;14.768;2022-12-10T05:01:28;63.83;;;32.37;;
46875;SDS011;32866;50.160;14.768;2022-12-10T05:03:54;44.88;;;26.67;;
46875;SDS011;32866;50.160;14.768;2022-12-10T05:06:19;50.60;;;26.23;;
46875;SDS011;32866;50.160;14.768;2022-12-10T05:08:45;70.40;;;33.83;;
46875;SDS011;32866;50.160;14.768;2022-12-10T05:11:12;112.25;;;42.55;;
46875;SDS011;32866;50.160;14.768;2022-12-10T05:13:39;119.43;;;46.40;;
46875;SDS011;32866;50.160;14.768;2022-12-10T05:18:32;141.43;;;52.27;;
46875;SDS011;32866;50.160;14.768;2022-12-10T05:20:58;112.13;;;42.47;;
46875;SDS011;32866;50.160;14.768;2022-12-10T05:23:28;155.53;;;62.17;;
46875;SDS011;32866;50.160;14.768;2022-12-10T05:28:49;61.30;;;29.77;;
46875;SDS011;32866;50.160;14.768;2022-12-10T05:31:21;40.57;;;24.53;;
46875;SDS011;32866;50.160;14.768;2022-12-10T05:33:47;51.37;;;24.60;;
46875;SDS011;32866;50.160;14.768;2022-12-10T05:38:40;49.00;;;23.97;;
46875;SDS011;32866;50.160;14.768;2022-12-10T05:41:07;54.08;;;24.65;;
46875;SDS011;32866;50.160;14.768;2022-12-10T05:43:35;56.63;;;25.67;;
46875;SDS011;32866;50.160;14.768;2022-12-10T05:46:02;48.58;;;23.85;;
46875;SDS011;32866;50.160;14.768;2022-12-10T05:48:30;49.53;;;23.80;;
46875;SDS011;32866;50.160;14.768;2022-12-10T05:50:55;47.00;;;24.08;;
46875;SDS011;32866;50.160;14.768;2022-12-10T05:53:21;42.87;;;22.80;;
46875;SDS011;32866;50.160;14.768;2022-12-10T05:55:47;55.70;;;26.13;;
46875;SDS011;32866;50.160;14.768;2022-12-10T05:58:13;44.38;;;22.80;;
46875;SDS011;32866;50.160;14.768;2022-12-10T06:00:39;51.88;;;24.75;;
46875;SDS011;32866;50.160;14.768;2022-12-10T06:03:05;55.63;;;26.37;;
46875;SDS011;32866;50.160;14.768;2022-12-10T06:08:03;53.67;;;25.07;;
46875;SDS011;32866;50.160;14.768;2022-12-10T06:10:29;51.03;;;26.77;;
46875;SDS011;32866;50.160;14.768;2022-12-10T06:12:54;48.15;;;24.40;;
46875;SDS011;32866;50.160;14.768;2022-12-10T06:15:19;49.60;;;25.67;;
46875;SDS011;32866;50.160;14.768;2022-12-10T06:17:45;54.17;;;25.80;;
46875;SDS011;32866;50.160;14.768;2022-12-10T06:20:10;48.65;;;23.73;;
46875;SDS011;32866;50.160;14.768;2022-12-10T06:22:36;49.90;;;23.25;;
46875;SDS011;32866;50.160;14.768;2022-12-10T06:25:01;53.58;;;25.10;;
46875;SDS011;32866;50.160;14.768;2022-12-10T06:27:29;47.25;;;26.08;;
46875;SDS011;32866;50.160;14.768;2022-12-10T06:29:55;52.13;;;25.20;;
46875;SDS011;32866;50.160;14.768;2022-12-10T06:32:20;49.85;;;24.17;;
46875;SDS011;32866;50.160;14.768;2022-12-10T06:34:45;53.30;;;24.58;;
46875;SDS011;32866;50.160;14.768;2022-12-10T06:37:11;68.43;;;28.92;;
46875;SDS011;32866;50.160;14.768;2022-12-10T06:39:36;58.95;;;25.50;;
46875;SDS011;32866;50.160;14.768;2022-12-10T06:42:01;50.28;;;24.90;;
46875;SDS011;32866;50.160;14.768;2022-12-10T06:44:27;65.30;;;27.50;;
46875;SDS011;32866;50.160;14.768;2022-12-10T06:46:52;60.72;;;26.63;;
46875;SDS011;32866;50.160;14.768;2022-12-10T06:49:18;58.63;;;26.70;;
46875;SDS011;32866;50.160;14.768;2022-12-10T06:51:43;51.08;;;26.63;;
46875;SDS011;32866;50.160;14.768;2022-12-10T06:54:08;53.92;;;25.05;;
46875;SDS011;32866;50.160;14.768;2022-12-10T06:56:34;56.47;;;24.90;;
46875;SDS011;32866;50.160;14.768;2022-12-10T06:58:59;52.72;;;23.77;;
46875;SDS011;32866;50.160;14.768;2022-12-10T07:01:28;59.23;;;25.43;;
46875;SDS011;32866;50.160;14.768;2022-12-10T07:03:54;101.55;;;39.47;;
46875;SDS011;32866;50.160;14.768;2022-12-10T07:06:21;96.80;;;38.40;;
46875;SDS011;32866;50.160;14.768;2022-12-10T07:08:48;123.87;;;42.20;;
46875;SDS011;32866;50.160;14.768;2022-12-10T07:11:15;59.97;;;28.63;;
46875;SDS011;32866;50.160;14.768;2022-12-10T07:13:41;119.43;;;44.73;;
46875;SDS011;32866;50.160;14.768;2022-12-10T07:16:17;89.03;;;34.65;;
46875;SDS011;32866;50.160;14.768;2022-12-10T07:18:44;79.40;;;31.20;;
46875;SDS011;32866;50.160;14.768;2022-12-10T07:21:20;88.97;;;37.08;;
46875;SDS011;32866;50.160;14.768;2022-12-10T07:23:54;77.23;;;34.07;;
46875;SDS011;32866;50.160;14.768;2022-12-10T07:26:22;114.07;;;43.83;;
46875;SDS011;32866;50.160;14.768;2022-12-10T07:28:53;101.53;;;42.63;;
46875;SDS011;32866;50.160;14.768;2022-12-10T07:31:18;63.42;;;32.28;;
46875;SDS011;32866;50.160;14.768;2022-12-10T07:33:45;123.57;;;47.67;;
46875;SDS011;32866;50.160;14.768;2022-12-10T07:36:11;88.72;;;36.10;;
46875;SDS011;32866;50.160;14.768;2022-12-10T07:38:37;67.73;;;31.10;;
46875;SDS011;32866;50.160;14.768;2022-12-10T07:41:03;67.30;;;28.02;;
46875;SDS011;32866;50.160;14.768;2022-12-10T07:43:29;95.87;;;39.03;;
46875;SDS011;32866;50.160;14.768;2022-12-10T07:45:54;72.70;;;34.13;;
46875;SDS011;32866;50.160;14.768;2022-12-10T07:48:20;64.68;;;28.20;;
46875;SDS011;32866;50.160;14.768;2022-12-10T07:50:45;139.10;;;49.45;;
46875;SDS011;32866;50.160;14.768;2022-12-10T07:53:10;108.60;;;41.08;;
46875;SDS011;32866;50.160;14.768;2022-12-10T07:55:36;84.65;;;33.45;;
46875;SDS011;32866;50.160;14.768;2022-12-10T07:58:02;69.88;;;30.38;;
46875;SDS011;32866;50.160;14.768;2022-12-10T08:00:28;68.77;;;28.87;;
46875;SDS011;32866;50.160;14.768;2022-12-10T08:02:53;63.70;;;27.85;;
46875;SDS011;32866;50.160;14.768;2022-12-10T08:05:19;58.63;;;27.30;;
46875;SDS011;32866;50.160;14.768;2022-12-10T08:07:44;55.97;;;24.20;;
46875;SDS011;32866;50.160;14.768;2022-12-10T08:10:10;50.58;;;23.50;;
46875;SDS011;32866;50.160;14.768;2022-12-10T08:12:35;74.30;;;30.33;;
46875;SDS011;32866;50.160;14.768;2022-12-10T08:15:01;49.92;;;23.80;;
46875;SDS011;32866;50.160;14.768;2022-12-10T08:17:27;47.47;;;22.50;;
46875;SDS011;32866;50.160;14.768;2022-12-10T08:19:52;55.40;;;24.30;;
46875;SDS011;32866;50.160;14.768;2022-12-10T08:22:19;49.80;;;24.43;;
46875;SDS011;32866;50.160;14.768;2022-12-10T08:24:45;79.10;;;28.83;;
46875;SDS011;32866;50.160;14.768;2022-12-10T08:27:10;65.50;;;30.30;;
46875;SDS011;32866;50.160;14.768;2022-12-10T08:29:36;62.95;;;25.70;;
46875;SDS011;32866;50.160;14.768;2022-12-10T08:32:01;108.15;;;36.78;;
46875;SDS011;32866;50.160;14.768;2022-12-10T08:34:26;139.68;;;44.83;;
46875;SDS011;32866;50.160;14.768;2022-12-10T08:36:52;59.50;;;28.27;;
46875;SDS011;32866;50.160;14.768;2022-12-10T08:39:17;64.97;;;28.67;;
46875;SDS011;32866;50.160;14.768;2022-12-10T08:41:43;63.88;;;24.42;;
46875;SDS011;32866;50.160;14.768;2022-12-10T08:44:09;55.17;;;26.10;;
46875;SDS011;32866;50.160;14.768;2022-12-10T08:46:35;54.05;;;24.45;;
46875;SDS011;32866;50.160;14.768;2022-12-10T08:49:00;60.58;;;25.88;;
46875;SDS011;32866;50.160;14.768;2022-12-10T08:51:26;62.35;;;26.02;;
46875;SDS011;32866;50.160;14.768;2022-12-10T08:53:52;53.13;;;25.30;;
46875;SDS011;32866;50.160;14.768;2022-12-10T08:56:18;56.65;;;26.10;;
46875;SDS011;32866;50.160;14.768;2022-12-10T08:58:43;60.58;;;24.20;;
46875;SDS011;32866;50.160;14.768;2022-12-10T09:01:09;58.10;;;28.67;;
46875;SDS011;32866;50.160;14.768;2022-12-10T09:03:37;55.60;;;24.20;;
46875;SDS011;32866;50.160;14.768;2022-12-10T09:06:07;60.35;;;28.42;;
46875;SDS011;32866;50.160;14.768;2022-12-10T09:08:34;57.03;;;25.87;;
46875;SDS011;32866;50.160;14.768;2022-12-10T09:13:49;65.40;;;30.70;;
46875;SDS011;32866;50.160;14.768;2022-12-10T09:18:40;50.60;;;23.80;;
46875;SDS011;32866;50.160;14.768;2022-12-10T09:21:10;64.97;;;26.33;;
46875;SDS011;32866;50.160;14.768;2022-12-10T09:23:37;54.90;;;26.67;;
46875;SDS011;32866;50.160;14.768;2022-12-10T09:26:09;60.33;;;25.48;;
46875;SDS011;32866;50.160;14.768;2022-12-10T09:28:37;48.97;;;22.97;;
46875;SDS011;32866;50.160;14.768;2022-12-10T09:31:03;51.92;;;25.27;;
46875;SDS011;32866;50.160;14.768;2022-12-10T09:33:30;56.07;;;23.83;;
46875;SDS011;32866;50.160;14.768;2022-12-10T09:35:56;56.20;;;24.23;;
46875;SDS011;32866;50.160;14.768;2022-12-10T09:38:21;60.53;;;26.42;;
46875;SDS011;32866;50.160;14.768;2022-12-10T09:40:50;59.70;;;26.33;;
46875;SDS011;32866;50.160;14.768;2022-12-10T09:43:41;61.33;;;25.70;;
46875;SDS011;32866;50.160;14.768;2022-12-10T09:46:22;59.90;;;26.80;;
46875;SDS011;32866;50.160;14.768;2022-12-10T09:51:28;58.73;;;26.80;;
46875;SDS011;32866;50.160;14.768;2022-12-10T09:53:57;60.33;;;26.67;;
46875;SDS011;32866;50.160;14.768;2022-12-10T09:56:26;62.73;;;27.67;;
46875;SDS011;32866;50.160;14.768;2022-12-10T09:58:56;58.37;;;25.93;;
46875;SDS011;32866;50.160;14.768;2022-12-10T10:01:25;58.60;;;27.13;;
46875;SDS011;32866;50.160;14.768;2022-12-10T10:03:54;58.33;;;26.67;;
46875;SDS011;32866;50.160;14.768;2022-12-10T10:06:19;56.97;;;25.20;;
46875;SDS011;32866;50.160;14.768;2022-12-10T10:08:49;50.87;;;23.70;;
46875;SDS011;32866;50.160;14.768;2022-12-10T10:11:19;53.10;;;22.70;;
46875;SDS011;32866;50.160;14.768;2022-12-10T10:13:55;53.00;;;23.17;;
46875;SDS011;32866;50.160;14.768;2022-12-10T10:16:30;58.63;;;27.25;;
46875;SDS011;32866;50.160;14.768;2022-12-10T10:19:12;59.60;;;24.13;;
46875;SDS011;32866;50.160;14.768;2022-12-10T10:21:41;51.37;;;23.27;;
46875;SDS011;32866;50.160;14.768;2022-12-10T10:24:12;49.53;;;23.07;;
46875;SDS011;32866;50.160;14.768;2022-12-10T10:26:39;49.20;;;21.87;;
46875;SDS011;32866;50.160;14.768;2022-12-10T10:29:06;47.05;;;22.50;;
46875;SDS011;32866;50.160;14.768;2022-12-10T10:31:34;51.23;;;22.00;;
46875;SDS011;32866;50.160;14.768;2022-12-10T10:34:03;45.57;;;20.77;;
46875;SDS011;32866;50.160;14.768;2022-12-10T10:36:32;43.63;;;22.10;;
46875;SDS011;32866;50.160;14.768;2022-12-10T10:39:09;54.80;;;24.00;;
46875;SDS011;32866;50.160;14.768;2022-12-10T10:41:44;50.80;;;21.87;;
46875;SDS011;32866;50.160;14.768;2022-12-10T10:44:16;53.50;;;24.07;;
46875;SDS011;32866;50.160;14.768;2022-12-10T10:46:44;47.70;;;21.97;;
46875;SDS011;32866;50.160;14.768;2022-12-10T10:49:12;48.93;;;23.63;;
46875;SDS011;32866;50.160;14.768;2022-12-10T10:52:05;52.87;;;22.00;;
46875;SDS011;32866;50.160;14.768;2022-12-10T10:54:40;47.00;;;21.13;;
46875;SDS011;32866;50.160;14.768;2022-12-10T11:00:00;56.53;;;25.83;;
46875;SDS011;32866;50.160;14.768;2022-12-10T11:05:15;60.70;;;25.37;;
46875;SDS011;32866;50.160;14.768;2022-12-10T11:07:47;47.33;;;21.77;;
46875;SDS011;32866;50.160;14.768;2022-12-10T11:12:44;46.87;;;23.70;;
46875;SDS011;32866;50.160;14.768;2022-12-10T11:17:53;47.87;;;22.57;;
46875;SDS011;32866;50.160;14.768;2022-12-10T11:20:21;53.00;;;23.60;;
46875;SDS011;32866;50.160;14.768;2022-12-10T11:22:49;50.33;;;21.10;;
46875;SDS011;32866;50.160;14.768;2022-12-10T11:25:16;47.07;;;21.33;;
46875;SDS011;32866;50.160;14.768;2022-12-10T11:30:30;48.65;;;22.08;;
46875;SDS011;32866;50.160;14.768;2022-12-10T11:33:13;48.30;;;22.40;;
46875;SDS011;32866;50.160;14.768;2022-12-10T11:52:00;50.93;;;22.77;;
46875;SDS011;32866;50.160;14.768;2022-12-10T12:14:08;38.27;;;19.87;;
46875;SDS011;32866;50.160;14.768;2022-12-10T12:16:42;45.37;;;22.17;;
46875;SDS011;32866;50.160;14.768;2022-12-10T12:19:21;42.03;;;21.20;;
46875;SDS011;32866;50.160;14.768;2022-12-10T12:21:52;50.63;;;22.40;;
46875;SDS011;32866;50.160;14.768;2022-12-10T12:24:27;50.40;;;22.37;;
46875;SDS011;32866;50.160;14.768;2022-12-10T12:27:06;53.13;;;21.20;;
46875;SDS011;32866;50.160;14.768;2022-12-10T12:30:03;42.43;;;20.00;;
46875;SDS011;32866;50.160;14.768;2022-12-10T12:32:51;42.70;;;22.17;;
46875;SDS011;32866;50.160;14.768;2022-12-10T12:35:45;44.03;;;20.03;;
46875;SDS011;32866;50.160;14.768;2022-12-10T12:40:52;42.10;;;22.37;;
46875;SDS011;32866;50.160;14.768;2022-12-10T12:43:26;45.33;;;19.93;;
46875;SDS011;32866;50.160;14.768;2022-12-10T12:46:01;43.35;;;19.88;;
46875;SDS011;32866;50.160;14.768;2022-12-10T12:48:34;39.93;;;20.10;;
46875;SDS011;32866;50.160;14.768;2022-12-10T12:51:18;44.80;;;20.97;;
46875;SDS011;32866;50.160;14.768;2022-12-10T12:54:03;45.87;;;19.17;;
46875;SDS011;32866;50.160;14.768;2022-12-10T13:05:30;47.23;;;20.70;;
46875;SDS011;32866;50.160;14.768;2022-12-10T13:29:57;45.87;;;20.27;;
46875;SDS011;32866;50.160;14.768;2022-12-10T13:42:37;36.43;;;18.87;;
46875;SDS011;32866;50.160;14.768;2022-12-10T13:47:49;42.07;;;19.90;;
46875;SDS011;32866;50.160;14.768;2022-12-10T13:53:08;38.93;;;20.20;;
46875;SDS011;32866;50.160;14.768;2022-12-10T13:55:55;37.80;;;17.67;;
46875;SDS011;32866;50.160;14.768;2022-12-10T13:58:36;48.03;;;19.50;;
46875;SDS011;32866;50.160;14.768;2022-12-10T14:07:12;41.53;;;19.20;;
46875;SDS011;32866;50.160;14.768;2022-12-10T14:09:46;39.30;;;21.70;;
46875;SDS011;32866;50.160;14.768;2022-12-10T14:12:16;47.57;;;22.03;;
46875;SDS011;32866;50.160;14.768;2022-12-10T14:14:47;48.43;;;23.90;;
46875;SDS011;32866;50.160;14.768;2022-12-10T14:19:49;39.73;;;19.93;;
46875;SDS011;32866;50.160;14.768;2022-12-10T14:22:19;36.30;;;19.67;;
46875;SDS011;32866;50.160;14.768;2022-12-10T14:24:58;34.20;;;18.33;;
46875;SDS011;32866;50.160;14.768;2022-12-10T14:27:26;34.57;;;17.57;;
46875;SDS011;32866;50.160;14.768;2022-12-10T14:29:57;40.00;;;18.70;;
46875;SDS011;32866;50.160;14.768;2022-12-10T14:32:27;42.20;;;21.17;;
46875;SDS011;32866;50.160;14.768;2022-12-10T14:35:02;41.17;;;19.63;;
46875;SDS011;32866;50.160;14.768;2022-12-10T14:37:30;38.90;;;19.60;;
46875;SDS011;32866;50.160;14.768;2022-12-10T14:39:59;43.37;;;19.37;;
46875;SDS011;32866;50.160;14.768;2022-12-10T14:42:24;36.33;;;19.13;;
46875;SDS011;32866;50.160;14.768;2022-12-10T14:44:54;38.35;;;19.48;;
46875;SDS011;32866;50.160;14.768;2022-12-10T14:47:27;35.85;;;16.55;;
46875;SDS011;32866;50.160;14.768;2022-12-10T14:49:57;39.00;;;19.13;;
46875;SDS011;32866;50.160;14.768;2022-12-10T14:52:31;36.57;;;17.93;;
46875;SDS011;32866;50.160;14.768;2022-12-10T14:55:00;38.40;;;19.10;;
46875;SDS011;32866;50.160;14.768;2022-12-10T14:57:31;36.37;;;18.27;;
46875;SDS011;32866;50.160;14.768;2022-12-10T15:02:41;41.33;;;20.17;;
46875;SDS011;32866;50.160;14.768;2022-12-10T15:05:13;52.00;;;24.33;;
46875;SDS011;32866;50.160;14.768;2022-12-10T15:07:42;46.50;;;22.13;;
46875;SDS011;32866;50.160;14.768;2022-12-10T15:10:27;38.87;;;19.40;;
46875;SDS011;32866;50.160;14.768;2022-12-10T15:13:13;35.83;;;18.10;;
46875;SDS011;32866;50.160;14.768;2022-12-10T15:16:00;47.53;;;22.70;;
46875;SDS011;32866;50.160;14.768;2022-12-10T15:18:28;68.85;;;32.22;;
46875;SDS011;32866;50.160;14.768;2022-12-10T15:21:30;59.43;;;26.93;;
46875;SDS011;32866;50.160;14.768;2022-12-10T15:23:49;44.03;;;22.10;;
46875;SDS011;32866;50.160;14.768;2022-12-10T15:26:23;37.13;;;19.77;;
46875;SDS011;32866;50.160;14.768;2022-12-10T15:28:53;40.47;;;21.93;;
46875;SDS011;32866;50.160;14.768;2022-12-10T15:31:55;38.90;;;21.87;;
46875;SDS011;32866;50.160;14.768;2022-12-10T15:34:32;48.47;;;21.50;;
46875;SDS011;32866;50.160;14.768;2022-12-10T15:37:03;44.95;;;21.48;;
46875;SDS011;32866;50.160;14.768;2022-12-10T15:42:01;41.43;;;20.23;;
46875;SDS011;32866;50.160;14.768;2022-12-10T15:49:22;39.60;;;18.23;;
46875;SDS011;32866;50.160;14.768;2022-12-10T15:51:47;56.45;;;25.30;;
46875;SDS011;32866;50.160;14.768;2022-12-10T15:54:22;48.83;;;22.17;;
46875;SDS011;32866;50.160;14.768;2022-12-10T15:56:48;45.53;;;22.27;;
46875;SDS011;32866;50.160;14.768;2022-12-10T15:59:14;41.50;;;19.73;;
46875;SDS011;32866;50.160;14.768;2022-12-10T16:01:39;43.75;;;22.35;;
46875;SDS011;32866;50.160;14.768;2022-12-10T16:04:08;42.47;;;21.45;;
46875;SDS011;32866;50.160;14.768;2022-12-10T16:06:33;42.80;;;20.63;;
46875;SDS011;32866;50.160;14.768;2022-12-10T16:08:59;47.17;;;21.80;;
46875;SDS011;32866;50.160;14.768;2022-12-10T16:11:24;42.17;;;21.27;;
46875;SDS011;32866;50.160;14.768;2022-12-10T16:13:51;41.05;;;19.45;;
46875;SDS011;32866;50.160;14.768;2022-12-10T16:16:18;38.00;;;19.40;;
46875;SDS011;32866;50.160;14.768;2022-12-10T16:18:44;41.72;;;19.08;;
46875;SDS011;32866;50.160;14.768;2022-12-10T16:21:09;45.88;;;22.33;;
46875;SDS011;32866;50.160;14.768;2022-12-10T16:23:35;40.58;;;21.92;;
46875;SDS011;32866;50.160;14.768;2022-12-10T16:26:04;34.30;;;20.23;;
46875;SDS011;32866;50.160;14.768;2022-12-10T16:28:51;38.50;;;19.10;;
46875;SDS011;32866;50.160;14.768;2022-12-10T16:31:18;40.93;;;20.23;;
46875;SDS011;32866;50.160;14.768;2022-12-10T16:33:45;46.80;;;22.27;;
46875;SDS011;32866;50.160;14.768;2022-12-10T16:36:12;43.73;;;22.83;;
46875;SDS011;32866;50.160;14.768;2022-12-10T16:38:38;41.03;;;22.15;;
46875;SDS011;32866;50.160;14.768;2022-12-10T16:41:09;43.83;;;21.20;;
46875;SDS011;32866;50.160;14.768;2022-12-10T16:43:46;41.07;;;19.53;;
46875;SDS011;32866;50.160;14.768;2022-12-10T16:46:11;44.67;;;21.88;;
46875;SDS011;32866;50.160;14.768;2022-12-10T16:51:03;42.57;;;19.07;;
46875;SDS011;32866;50.160;14.768;2022-12-10T16:53:31;39.20;;;20.10;;
46875;SDS011;32866;50.160;14.768;2022-12-10T16:56:00;41.90;;;19.63;;
46875;SDS011;32866;50.160;14.768;2022-12-10T16:58:25;36.35;;;19.45;;